createdAt,value
2018-05-07T00:02:04.332Z,91.30
2018-05-07T00:04:32.600Z,91.20
2018-05-07T00:07:00.127Z,91.20
2018-05-07T00:09:27.747Z,91.10
2018-05-07T00:11:55.233Z,91.20
2018-05-07T00:14:22.784Z,91.40
2018-05-07T00:16:50.313Z,91.40
2018-05-07T00:19:17.844Z,91.40
2018-05-07T00:21:45.373Z,91.40
2018-05-07T00:24:12.885Z,91.60
2018-05-07T00:26:40.436Z,91.70
2018-05-07T00:29:08.774Z,91.60
2018-05-07T00:31:36.298Z,91.60
2018-05-07T00:34:03.829Z,91.60
2018-05-07T00:36:31.359Z,91.50
2018-05-07T00:38:58.899Z,91.50
2018-05-07T00:41:26.442Z,91.60
2018-05-07T00:43:53.960Z,91.60
2018-05-07T00:46:21.501Z,91.60
2018-05-07T00:48:49.020Z,91.70
2018-05-07T00:51:16.563Z,91.80
2018-05-07T00:53:44.089Z,92.00
2018-05-07T00:56:11.620Z,92.00
2018-05-07T00:58:39.172Z,92.20
2018-05-07T01:01:06.685Z,92.20
2018-05-07T01:03:34.227Z,92.30
2018-05-07T01:06:01.747Z,92.30
2018-05-07T01:08:29.284Z,92.40
2018-05-07T01:10:56.817Z,92.30
2018-05-07T01:13:24.351Z,92.20
2018-05-07T01:15:51.871Z,92.20
2018-05-07T01:18:19.407Z,92.20
2018-05-07T01:20:46.917Z,92.20
2018-05-07T01:23:15.216Z,92.20
2018-05-07T01:25:42.742Z,92.10
2018-05-07T01:28:11.043Z,92.30
2018-05-07T01:30:38.561Z,92.20
2018-05-07T01:33:06.107Z,92.20
2018-05-07T01:35:33.622Z,92.20
2018-05-07T01:38:01.149Z,92.40
2018-05-07T01:40:28.665Z,92.20
2018-05-07T01:42:56.210Z,92.10
2018-05-07T01:45:23.741Z,92.00
2018-05-07T01:47:51.271Z,91.80
2018-05-07T01:50:18.799Z,91.60
2018-05-07T01:52:46.356Z,92.00
2018-05-07T01:55:13.862Z,93.00
2018-05-07T01:57:42.154Z,92.20
2018-05-07T02:00:09.664Z,92.20
2018-05-07T02:02:37.212Z,92.10
2018-05-07T02:05:04.731Z,92.40
2018-05-07T02:07:33.006Z,91.80
2018-05-07T02:10:00.541Z,91.80
2018-05-07T02:12:28.819Z,91.80
2018-05-07T02:14:56.357Z,91.80
2018-05-07T02:17:23.871Z,91.70
2018-05-07T02:19:51.390Z,91.60
2018-05-07T02:22:19.666Z,91.80
2018-05-07T02:24:47.201Z,91.80
2018-05-07T02:27:15.491Z,92.70
2018-05-07T02:29:43.078Z,92.70
2018-05-07T02:32:10.626Z,92.40
2018-05-07T02:34:38.148Z,92.50
2018-05-07T02:37:06.448Z,92.00
2018-05-07T02:39:33.986Z,92.00
2018-05-07T02:42:01.509Z,92.10
2018-05-07T02:44:29.046Z,92.10
2018-05-07T02:46:56.560Z,91.80
2018-05-07T02:49:24.105Z,91.50
2018-05-07T02:51:51.632Z,91.60
2018-05-07T02:54:19.170Z,92.40
2018-05-07T02:56:46.688Z,92.70
2018-05-07T02:59:15.025Z,92.90
2018-05-07T03:01:43.304Z,92.50
2018-05-07T03:04:10.827Z,92.50
2018-05-07T03:06:38.331Z,92.20
2018-05-07T03:09:05.855Z,91.90
2018-05-07T03:11:33.367Z,92.00
2018-05-07T03:14:00.900Z,91.80
2018-05-07T03:16:28.409Z,92.10
2018-05-07T03:18:55.946Z,92.60
2018-05-07T03:21:23.461Z,92.70
2018-05-07T03:23:50.977Z,92.70
2018-05-07T03:26:18.509Z,92.40
2018-05-07T03:28:46.800Z,92.10
2018-05-07T03:31:14.331Z,92.10
2018-05-07T03:33:41.837Z,92.00
2018-05-07T03:36:09.364Z,91.90
2018-05-07T03:38:36.889Z,92.10
2018-05-07T03:41:04.426Z,92.20
2018-05-07T03:43:31.961Z,92.10
2018-05-07T03:45:59.491Z,92.20
2018-05-07T03:48:26.999Z,92.30
2018-05-07T03:50:54.526Z,92.30
2018-05-07T03:53:22.051Z,92.30
2018-05-07T03:55:49.606Z,91.90
2018-05-07T03:58:17.132Z,91.80
2018-05-07T04:00:45.469Z,91.80
2018-05-07T04:03:12.985Z,92.50
2018-05-07T04:05:40.508Z,92.70
2018-05-07T04:08:08.404Z,92.40
2018-05-07T04:10:35.953Z,92.30
2018-05-07T04:13:03.480Z,92.50
2018-05-07T04:15:31.011Z,92.30
2018-05-07T04:18:10.923Z,92.10
2018-05-07T04:20:50.210Z,92.10
2018-05-07T04:23:29.710Z,91.90
2018-05-07T04:25:57.236Z,92.30
2018-05-07T04:28:24.757Z,92.40
2018-05-07T04:30:52.296Z,92.20
2018-05-07T04:33:20.592Z,92.50
2018-05-07T04:35:48.108Z,92.50
2018-05-07T04:38:15.714Z,91.40
2018-05-07T04:40:43.232Z,89.60
2018-05-07T04:43:10.835Z,86.60
2018-05-07T04:45:38.312Z,85.40
2018-05-07T04:48:06.620Z,84.60
2018-05-07T04:50:34.143Z,84.50
2018-05-07T04:53:01.683Z,86.30
2018-05-07T04:55:29.200Z,87.30
2018-05-07T04:57:57.503Z,82.50
2018-05-07T05:00:25.228Z,82.50
2018-05-07T05:02:52.780Z,82.70
2018-05-07T05:05:20.312Z,86.00
2018-05-07T05:07:47.845Z,87.90
2018-05-07T05:10:15.364Z,90.00
2018-05-07T05:12:42.901Z,90.40
2018-05-07T05:15:10.430Z,91.10
2018-05-07T05:17:37.961Z,91.10
2018-05-07T05:20:05.490Z,91.40
2018-05-07T05:22:33.020Z,90.80
2018-05-07T05:25:00.543Z,90.80
2018-05-07T05:27:28.107Z,91.10
2018-05-07T05:29:55.633Z,91.20
2018-05-07T05:32:23.925Z,91.10
2018-05-07T05:34:52.404Z,91.10
2018-05-07T05:37:19.932Z,91.00
2018-05-07T05:39:47.488Z,91.00
2018-05-07T05:42:15.052Z,90.90
2018-05-07T05:44:42.588Z,90.90
2018-05-07T05:47:10.116Z,91.10
2018-05-07T05:49:37.656Z,90.80
2018-05-07T05:52:05.194Z,91.20
2018-05-07T05:54:33.515Z,90.60
2018-05-07T05:57:01.032Z,90.50
2018-05-07T05:59:29.334Z,89.70
2018-05-07T06:01:56.872Z,89.60
2018-05-07T06:04:24.406Z,89.70
2018-05-07T06:06:51.927Z,89.80
2018-05-07T06:09:19.468Z,89.40
2018-05-07T06:11:46.988Z,86.90
2018-05-07T06:14:15.288Z,86.60
2018-05-07T06:16:42.812Z,86.60
2018-05-07T06:19:11.224Z,84.70
2018-05-07T06:21:38.799Z,84.70
2018-05-07T06:24:06.328Z,84.20
2018-05-07T06:26:33.847Z,84.40
2018-05-07T06:29:01.391Z,82.70
2018-05-07T06:31:28.929Z,82.80
2018-05-07T06:33:56.490Z,83.50
2018-05-07T06:36:24.011Z,82.70
2018-05-07T06:38:51.571Z,82.30
2018-05-07T06:41:19.113Z,81.90
2018-05-07T06:43:46.809Z,79.90
2018-05-07T06:46:15.276Z,78.10
2018-05-07T06:48:42.838Z,78.10
2018-05-07T06:51:10.367Z,77.40
2018-05-07T06:53:37.915Z,73.30
2018-05-07T06:56:05.475Z,72.70
2018-05-07T06:58:33.043Z,73.80
2018-05-07T07:01:00.597Z,74.20
2018-05-07T07:03:28.122Z,72.00
2018-05-07T07:05:55.652Z,69.90
2018-05-07T07:08:23.293Z,71.10
2018-05-07T07:10:50.737Z,67.90
2018-05-07T07:13:19.037Z,57.50
2018-05-07T07:15:46.589Z,57.40
2018-05-07T07:18:14.901Z,33.20
2018-05-07T07:20:42.492Z,33.00
2018-05-07T07:23:10.017Z,27.00
2018-05-07T07:25:37.578Z,22.40
2018-05-07T07:28:05.238Z,20.50
2018-05-07T07:30:32.836Z,19.60
2018-05-07T07:33:00.351Z,19.50
2018-05-07T07:35:27.879Z,19.60
2018-05-07T07:37:55.401Z,18.40
2018-05-07T07:40:22.941Z,16.90
2018-05-07T07:42:50.451Z,17.00
2018-05-07T07:45:17.987Z,17.20
2018-05-07T07:47:45.500Z,17.50
2018-05-07T07:50:13.053Z,18.20
2018-05-07T07:52:40.592Z,18.20
2018-05-07T07:55:08.141Z,20.20
2018-05-07T07:57:35.655Z,18.60
2018-05-07T08:00:03.215Z,17.40
2018-05-07T08:02:30.742Z,18.80
2018-05-07T08:04:58.270Z,18.10
2018-05-07T08:07:25.820Z,17.80
2018-05-07T08:09:53.344Z,17.30
2018-05-07T08:12:20.982Z,17.90
2018-05-07T08:14:48.438Z,16.60
2018-05-07T08:17:15.985Z,17.30
2018-05-07T08:19:43.504Z,17.00
2018-05-07T08:22:11.048Z,17.10
2018-05-07T08:24:39.413Z,18.10
2018-05-07T08:27:06.906Z,18.00
2018-05-07T08:29:36.150Z,18.60
2018-05-07T08:32:03.679Z,18.10
2018-05-07T08:34:31.221Z,17.50
2018-05-07T08:36:58.749Z,17.70
2018-05-07T08:39:27.044Z,18.30
2018-05-07T08:41:54.589Z,18.30
2018-05-07T08:44:22.904Z,17.90
2018-05-07T08:46:50.683Z,17.90
2018-05-07T08:49:18.208Z,17.70
2018-05-07T08:51:52.626Z,18.00
2018-05-07T08:54:20.233Z,18.10
2018-05-07T08:56:47.717Z,17.80
2018-05-07T08:59:15.234Z,18.20
2018-05-07T09:01:42.771Z,18.10
2018-05-07T09:04:11.047Z,17.70
2018-05-07T09:06:38.600Z,17.70
2018-05-07T09:09:06.132Z,18.30
2018-05-07T09:11:34.434Z,18.40
2018-05-07T09:14:01.959Z,18.30
2018-05-07T09:16:30.291Z,19.10
2018-05-07T09:18:57.887Z,19.10
2018-05-07T09:21:25.407Z,18.60
2018-05-07T09:23:52.953Z,18.60
2018-05-07T09:26:20.476Z,18.30
2018-05-07T09:28:48.784Z,19.90
2018-05-07T09:31:16.316Z,19.80
2018-05-07T09:33:43.847Z,20.60
2018-05-07T09:36:12.123Z,19.80
2018-05-07T09:38:39.649Z,19.70
2018-05-07T09:41:07.184Z,21.20
2018-05-07T09:43:34.720Z,21.70
2018-05-07T09:46:02.355Z,20.60
2018-05-07T09:48:29.912Z,22.40
2018-05-07T09:50:57.436Z,21.80
2018-05-07T09:53:24.968Z,21.50
2018-05-07T09:55:52.502Z,22.50
2018-05-07T09:58:20.035Z,20.90
2018-05-07T10:00:47.597Z,21.70
2018-05-07T10:03:15.134Z,21.80
2018-05-07T10:05:42.652Z,21.00
2018-05-07T10:08:10.184Z,21.70
2018-05-07T10:10:38.458Z,24.80
2018-05-07T10:13:06.768Z,27.70
2018-05-07T10:15:34.324Z,27.60
2018-05-07T10:18:01.892Z,29.40
2018-05-07T10:20:29.408Z,29.60
2018-05-07T10:22:57.723Z,31.20
2018-05-07T10:25:25.244Z,31.20
2018-05-07T10:27:53.549Z,33.80
2018-05-07T10:30:21.070Z,33.90
2018-05-07T10:32:49.371Z,33.20
2018-05-07T10:35:16.939Z,33.20
2018-05-07T10:37:44.468Z,32.30
2018-05-07T10:40:12.018Z,31.20
2018-05-07T10:42:39.698Z,33.20
2018-05-07T10:45:07.203Z,32.40
2018-05-07T10:47:34.749Z,32.00
2018-05-07T10:50:02.291Z,31.70
2018-05-07T10:52:29.815Z,31.00
2018-05-07T10:54:58.124Z,30.90
2018-05-07T10:57:25.649Z,31.00
2018-05-07T10:59:53.217Z,32.10
2018-05-07T11:02:20.730Z,32.90
2018-05-07T11:04:48.276Z,31.50
2018-05-07T11:07:15.796Z,30.90
2018-05-07T11:09:43.331Z,30.10
2018-05-07T11:12:10.866Z,30.10
2018-05-07T11:14:38.399Z,31.50
2018-05-07T11:17:05.927Z,31.10
2018-05-07T11:19:33.460Z,31.00
2018-05-07T11:22:00.984Z,30.30
2018-05-07T11:24:28.536Z,29.60
2018-05-07T11:26:56.059Z,31.70
2018-05-07T11:29:23.599Z,29.30
2018-05-07T11:31:51.104Z,31.60
2018-05-07T11:34:18.650Z,30.60
2018-05-07T11:36:46.179Z,30.10
2018-05-07T11:39:14.497Z,30.70
2018-05-07T11:41:42.020Z,30.70
2018-05-07T11:44:09.557Z,30.50
2018-05-07T11:46:37.088Z,31.30
2018-05-07T11:49:04.609Z,29.20
2018-05-07T11:51:32.152Z,30.90
2018-05-07T11:53:59.680Z,31.90
2018-05-07T11:56:27.210Z,28.80
2018-05-07T11:58:54.736Z,31.90
2018-05-07T12:01:22.282Z,31.50
2018-05-07T12:03:49.811Z,30.00
2018-05-07T12:06:17.344Z,29.80
2018-05-07T12:08:44.934Z,30.40
2018-05-07T12:11:12.494Z,32.00
2018-05-07T12:13:40.012Z,32.00
2018-05-07T12:16:07.718Z,30.20
2018-05-07T12:18:35.231Z,31.50
2018-05-07T12:21:03.537Z,31.60
2018-05-07T12:23:31.072Z,31.60
2018-05-07T12:25:58.602Z,31.10
2018-05-07T12:28:26.116Z,31.70
2018-05-07T12:30:53.667Z,30.00
2018-05-07T12:33:21.209Z,29.60
2018-05-07T12:35:48.755Z,30.00
2018-05-07T12:38:16.287Z,30.90
2018-05-07T12:40:43.832Z,31.30
2018-05-07T12:43:11.418Z,32.10
2018-05-07T12:45:38.994Z,32.70
2018-05-07T12:48:06.530Z,32.30
2018-05-07T12:50:34.067Z,33.00
2018-05-07T12:53:01.632Z,33.30
2018-05-07T12:55:29.158Z,31.90
2018-05-07T12:57:57.461Z,32.70
2018-05-07T13:00:24.980Z,32.60
2018-05-07T13:02:52.599Z,32.60
2018-05-07T13:05:20.960Z,31.60
2018-05-07T13:07:48.780Z,32.20
2018-05-07T13:10:16.293Z,31.60
2018-05-07T13:12:43.824Z,33.50
2018-05-07T13:15:11.357Z,33.10
2018-05-07T13:17:39.678Z,30.20
2018-05-07T13:20:07.211Z,30.20
2018-05-07T13:22:34.749Z,32.60
2018-05-07T13:25:02.275Z,32.40
2018-05-07T13:27:29.802Z,30.80
2018-05-07T13:29:57.334Z,31.90
2018-05-07T13:32:24.887Z,32.10
2018-05-07T13:34:53.972Z,34.20
2018-05-07T13:37:21.534Z,34.20
2018-05-07T13:39:49.845Z,34.00
2018-05-07T13:42:17.571Z,34.00
2018-05-07T13:44:45.112Z,32.80
2018-05-07T13:47:12.643Z,33.90
2018-05-07T13:49:40.187Z,31.50
2018-05-07T13:52:07.732Z,31.60
2018-05-07T13:54:35.251Z,32.60
2018-05-07T13:57:02.784Z,32.70
2018-05-07T13:59:30.304Z,33.00
2018-05-07T14:01:57.836Z,32.80
2018-05-07T14:04:26.133Z,32.10
2018-05-07T14:06:53.723Z,32.10
2018-05-07T14:09:21.504Z,31.90
2018-05-07T14:11:49.976Z,30.60
2018-05-07T14:14:17.543Z,32.70
2018-05-07T14:16:45.155Z,30.50
2018-05-07T14:19:12.634Z,33.10
2018-05-07T14:21:40.152Z,33.90
2018-05-07T14:24:07.702Z,33.60
2018-05-07T14:26:35.475Z,34.40
2018-05-07T14:29:03.044Z,34.70
2018-05-07T14:31:30.571Z,34.60
2018-05-07T14:33:58.152Z,33.00
2018-05-07T14:36:25.695Z,31.10
2018-05-07T14:38:53.463Z,31.70
2018-05-07T14:41:21.123Z,29.80
2018-05-07T14:43:48.659Z,31.80
2018-05-07T14:46:16.212Z,30.80
2018-05-07T14:48:43.765Z,30.80
2018-05-07T14:51:12.188Z,30.50
2018-05-07T14:53:39.735Z,30.20
2018-05-07T14:56:08.060Z,30.30
2018-05-07T14:58:35.678Z,30.30
2018-05-07T15:01:03.151Z,31.90
2018-05-07T15:03:30.690Z,30.20
2018-05-07T15:05:58.263Z,30.80
2018-05-07T15:08:25.791Z,30.10
2018-05-07T15:10:53.330Z,30.60
2018-05-07T15:13:20.877Z,31.40
2018-05-07T15:15:48.428Z,29.80
2018-05-07T15:18:15.977Z,31.00
2018-05-07T15:20:43.491Z,31.00
2018-05-07T15:23:11.057Z,30.00
2018-05-07T15:25:39.508Z,29.70
2018-05-07T15:28:07.093Z,29.70
2018-05-07T15:30:34.622Z,28.90
2018-05-07T15:33:02.148Z,29.60
2018-05-07T15:35:29.784Z,29.60
2018-05-07T15:37:57.332Z,29.90
2018-05-07T15:40:25.780Z,29.30
2018-05-07T15:42:53.327Z,29.30
2018-05-07T15:45:20.907Z,30.20
2018-05-07T15:47:49.257Z,31.30
2018-05-07T15:50:16.815Z,31.10
2018-05-07T15:52:44.338Z,30.20
2018-05-07T15:55:11.895Z,30.80
2018-05-07T15:57:39.422Z,30.40
2018-05-07T16:00:07.755Z,33.20
2018-05-07T16:02:35.309Z,33.20
2018-05-07T16:05:02.829Z,34.30
2018-05-07T16:07:31.136Z,31.80
2018-05-07T16:09:58.700Z,31.80
2018-05-07T16:12:26.225Z,31.20
2018-05-07T16:14:54.684Z,30.40
2018-05-07T16:17:22.208Z,30.40
2018-05-07T16:19:49.854Z,31.30
2018-05-07T16:22:17.455Z,31.80
2018-05-07T16:24:44.879Z,31.90
2018-05-07T16:27:12.418Z,32.30
2018-05-07T16:29:39.989Z,32.00
2018-05-07T16:32:07.531Z,31.90
2018-05-07T16:34:35.084Z,31.60
2018-05-07T16:37:02.596Z,33.00
2018-05-07T16:39:30.140Z,32.50
2018-05-07T16:41:57.689Z,33.40
2018-05-07T16:44:25.203Z,33.40
2018-05-07T16:46:52.783Z,34.30
2018-05-07T16:49:20.324Z,34.00
2018-05-07T16:51:47.865Z,35.20
2018-05-07T16:54:16.219Z,38.70
2018-05-07T16:56:43.759Z,38.70
2018-05-07T16:59:11.284Z,40.10
2018-05-07T17:01:39.591Z,42.00
2018-05-07T17:04:07.169Z,42.00
2018-05-07T17:06:34.712Z,42.40
2018-05-07T17:09:02.249Z,44.20
2018-05-07T17:11:30.000Z,43.70
2018-05-07T17:13:57.520Z,43.50
2018-05-07T17:16:25.148Z,42.00
2018-05-07T17:18:52.613Z,42.50
2018-05-07T17:21:20.168Z,44.20
2018-05-07T17:23:47.702Z,44.60
2018-05-07T17:26:15.272Z,45.30
2018-05-07T17:28:42.818Z,45.10
2018-05-07T17:31:10.389Z,45.30
2018-05-07T17:33:37.998Z,45.80
2018-05-07T17:36:05.501Z,46.70
2018-05-07T17:38:33.015Z,46.60
2018-05-07T17:41:00.547Z,47.20
2018-05-07T17:43:28.058Z,47.70
2018-05-07T17:46:07.397Z,47.60
2018-05-07T17:48:46.700Z,49.20
2018-05-07T17:51:14.300Z,50.70
2018-05-07T17:53:42.644Z,50.50
2018-05-07T17:56:10.209Z,50.50
2018-05-07T17:58:37.741Z,51.50
2018-05-07T18:01:05.255Z,52.70
2018-05-07T18:03:32.795Z,54.10
2018-05-07T18:06:00.376Z,54.00
2018-05-07T18:08:28.005Z,54.60
2018-05-07T18:10:55.617Z,55.70
2018-05-07T18:13:23.100Z,56.40
2018-05-07T18:15:50.624Z,57.20
2018-05-07T18:18:18.172Z,58.10
2018-05-07T18:20:45.694Z,58.40
2018-05-07T18:23:13.252Z,58.20
2018-05-07T18:25:41.110Z,58.30
2018-05-07T18:28:08.545Z,57.60
2018-05-07T18:30:36.066Z,57.80
2018-05-07T18:33:03.637Z,57.50
2018-05-07T18:35:31.221Z,58.00
2018-05-07T18:37:58.763Z,59.10
2018-05-07T18:40:27.063Z,58.30
2018-05-07T18:42:55.371Z,59.00
2018-05-07T18:45:22.894Z,59.00
2018-05-07T18:47:50.464Z,59.00
2018-05-07T18:50:18.744Z,59.80
2018-05-07T18:52:46.295Z,59.80
2018-05-07T18:55:14.584Z,60.20
2018-05-07T18:57:42.217Z,60.10
2018-05-07T19:00:09.740Z,61.10
2018-05-07T19:02:37.287Z,60.50
2018-05-07T19:05:05.578Z,63.60
2018-05-07T19:07:33.371Z,63.50
2018-05-07T19:10:02.909Z,64.00
2018-05-07T19:12:30.493Z,64.00
2018-05-07T19:14:58.037Z,64.10
2018-05-07T19:17:25.567Z,65.50
2018-05-07T19:19:53.135Z,66.40
2018-05-07T19:22:20.658Z,66.20
2018-05-07T19:24:48.203Z,66.50
2018-05-07T19:27:15.764Z,67.20
2018-05-07T19:29:44.201Z,67.60
2018-05-07T19:32:11.756Z,68.30
2018-05-07T19:34:39.299Z,68.30
2018-05-07T19:37:06.830Z,68.90
2018-05-07T19:39:34.396Z,69.60
2018-05-07T19:42:02.698Z,71.00
2018-05-07T19:44:30.305Z,70.10
2018-05-07T19:46:57.864Z,71.20
2018-05-07T19:49:25.438Z,71.40
2018-05-07T19:51:52.967Z,71.50
2018-05-07T19:54:20.512Z,71.60
2018-05-07T19:56:48.116Z,72.30
2018-05-07T19:59:15.674Z,72.70
2018-05-07T20:01:43.196Z,73.10
2018-05-07T20:04:10.753Z,72.80
2018-05-07T20:06:38.282Z,73.30
2018-05-07T20:09:05.845Z,73.00
2018-05-07T20:11:33.367Z,73.10
2018-05-07T20:14:00.904Z,73.00
2018-05-07T20:16:28.472Z,73.80
2018-05-07T20:18:56.030Z,73.70
2018-05-07T20:21:23.679Z,73.60
2018-05-07T20:23:51.200Z,73.80
2018-05-07T20:26:18.788Z,73.70
2018-05-07T20:28:46.310Z,74.20
2018-05-07T20:31:13.849Z,74.80
2018-05-07T20:33:41.369Z,74.90
2018-05-07T20:36:08.912Z,75.60
2018-05-07T20:38:36.473Z,75.70
2018-05-07T20:41:04.017Z,75.50
2018-05-07T20:43:31.548Z,75.20
2018-05-07T20:45:59.090Z,75.60
2018-05-07T20:48:27.371Z,76.50
2018-05-07T20:50:54.918Z,76.40
2018-05-07T20:53:23.230Z,78.10
2018-05-07T20:55:50.767Z,77.90
2018-05-07T20:58:19.061Z,79.10
2018-05-07T21:00:46.600Z,79.10
2018-05-07T21:03:14.897Z,79.70
2018-05-07T21:05:42.448Z,79.70
2018-05-07T21:08:09.969Z,79.80
2018-05-07T21:10:37.506Z,79.60
2018-05-07T21:13:05.065Z,79.40
2018-05-07T21:15:32.640Z,80.90
2018-05-07T21:18:00.212Z,81.60
2018-05-07T21:20:27.757Z,80.20
2018-05-07T21:22:55.293Z,78.10
2018-05-07T21:25:22.845Z,78.60
2018-05-07T21:27:50.364Z,78.70
2018-05-07T21:30:17.930Z,78.50
2018-05-07T21:32:45.461Z,78.90
2018-05-07T21:35:12.980Z,80.10
2018-05-07T21:37:40.516Z,80.30
2018-05-07T21:40:08.051Z,81.20
2018-05-07T21:42:35.594Z,81.40
2018-05-07T21:45:03.116Z,82.20
2018-05-07T21:47:30.659Z,82.80
2018-05-07T21:49:58.194Z,81.90
2018-05-07T21:52:25.728Z,81.80
2018-05-07T21:54:53.243Z,82.20
2018-05-07T21:57:20.790Z,81.30
2018-05-07T21:59:48.304Z,81.20
2018-05-07T22:02:16.697Z,82.60
2018-05-07T22:04:44.170Z,82.50
2018-05-07T22:07:11.729Z,83.30
2018-05-07T22:09:39.254Z,84.30
2018-05-07T22:12:06.813Z,84.50
2018-05-07T22:14:35.103Z,83.10
2018-05-07T22:17:02.645Z,83.10
2018-05-07T22:19:30.185Z,82.80
2018-05-07T22:21:57.757Z,83.40
2018-05-07T22:24:25.283Z,83.30
2018-05-07T22:26:52.851Z,83.30
2018-05-07T22:29:20.380Z,83.70
2018-05-07T22:31:47.921Z,84.40
2018-05-07T22:34:15.452Z,85.30
2018-05-07T22:36:43.003Z,85.70
2018-05-07T22:39:11.295Z,86.50
2018-05-07T22:41:38.844Z,86.50
2018-05-07T22:44:06.384Z,87.10
2018-05-07T22:46:33.912Z,87.50
2018-05-07T22:49:01.518Z,87.90
2018-05-07T22:51:28.990Z,88.50
2018-05-07T22:53:56.525Z,89.10
2018-05-07T22:56:24.050Z,89.00
2018-05-07T22:58:51.584Z,88.30
2018-05-07T23:01:19.103Z,88.10
2018-05-07T23:03:46.630Z,88.30
2018-05-07T23:06:14.161Z,87.40
2018-05-07T23:08:41.705Z,87.70
2018-05-07T23:11:09.236Z,87.90
2018-05-07T23:13:36.781Z,88.10
2018-05-07T23:16:04.297Z,88.70
2018-05-07T23:18:31.835Z,88.70
2018-05-07T23:20:59.360Z,88.50
2018-05-07T23:23:26.906Z,88.20
2018-05-07T23:25:54.428Z,88.20
2018-05-07T23:28:21.978Z,88.30
2018-05-07T23:30:49.497Z,89.00
2018-05-07T23:33:17.031Z,89.10
2018-05-07T23:35:44.562Z,89.50
2018-05-07T23:38:12.109Z,89.60
2018-05-07T23:40:39.639Z,89.50
2018-05-07T23:43:07.180Z,89.60
2018-05-07T23:45:34.687Z,89.90
2018-05-07T23:48:02.224Z,90.10
2018-05-07T23:50:29.743Z,90.30
2018-05-07T23:52:57.283Z,90.30
2018-05-07T23:55:24.823Z,90.60
2018-05-07T23:57:52.346Z,90.50
